createdAt,value
2022-08-05T00:04:56.800Z,101384.22
2022-08-05T00:09:58.317Z,101385.22
2022-08-05T00:15:00.304Z,101396.69
2022-08-05T00:20:21.807Z,101398.94
2022-08-05T00:25:23.323Z,101412.41
2022-08-05T00:30:29.038Z,101396.94
2022-08-05T00:35:33.613Z,101436.97
2022-08-05T00:40:53.256Z,101444.03
2022-08-05T00:45:55.310Z,101447.59
2022-08-05T00:50:56.935Z,101453.44
2022-08-05T00:55:58.493Z,101489.63
2022-08-05T01:01:00.101Z,101470.78
2022-08-05T01:06:03.762Z,101452.38
2022-08-05T01:11:13.602Z,101466.56
2022-08-05T01:16:30.620Z,101462.13
2022-08-05T01:21:44.442Z,101447.53
2022-08-05T01:27:23.917Z,101413.78
2022-08-05T01:32:30.326Z,101416.13
2022-08-05T01:37:36.553Z,101389.38
2022-08-05T01:42:40.986Z,101427.75
2022-08-05T01:47:43.931Z,101402.00
2022-08-05T01:52:49.692Z,101370.84
2022-08-05T01:58:09.771Z,101351.34
2022-08-05T02:03:37.608Z,101323.69
2022-08-05T02:08:55.036Z,101335.09
2022-08-05T02:14:12.437Z,101282.34
2022-08-05T02:19:20.219Z,101321.78
2022-08-05T02:24:31.225Z,101327.31
2022-08-05T02:29:59.233Z,101371.53
2022-08-05T02:35:02.169Z,101340.66
2022-08-05T02:40:12.919Z,101324.81
2022-08-05T02:45:16.322Z,101239.09
2022-08-05T02:50:18.962Z,101243.03
2022-08-05T02:55:53.912Z,101272.03
2022-08-05T03:00:46.141Z,101269.66
2022-08-05T03:06:55.961Z,101287.91
2022-08-05T03:11:54.979Z,101328.09
2022-08-05T03:16:43.492Z,101312.06
2022-08-05T03:21:48.929Z,101327.09
2022-08-05T03:26:51.304Z,101340.34
2022-08-05T03:31:55.551Z,101359.97
2022-08-05T03:36:59.063Z,101388.28
2022-08-05T03:42:00.642Z,101375.22
2022-08-05T03:47:03.636Z,101379.69
2022-08-05T03:52:37.775Z,101388.81
2022-08-05T03:57:42.295Z,101391.56
2022-08-05T04:02:57.672Z,101381.09
2022-08-05T04:08:14.745Z,101378.78
2022-08-05T04:13:51.123Z,101398.13
2022-08-05T04:18:54.477Z,101384.84
2022-08-05T04:24:06.211Z,101379.69
2022-08-05T04:29:08.673Z,101404.13
2022-08-05T04:34:19.274Z,101406.66
2022-08-05T04:39:35.215Z,101369.88
2022-08-05T04:44:37.507Z,101384.38
2022-08-05T04:50:01.782Z,101385.53
2022-08-05T04:55:05.311Z,101390.34
2022-08-05T05:00:16.866Z,101408.91
2022-08-05T05:05:28.167Z,101407.13
2022-08-05T05:10:33.256Z,101413.16
2022-08-05T05:15:56.481Z,101422.59
2022-08-05T05:20:56.858Z,101436.28
2022-08-05T05:26:00.187Z,101439.03
2022-08-05T05:31:02.363Z,101411.53
2022-08-05T05:36:07.850Z,101445.47
2022-08-05T05:41:12.197Z,101442.09
2022-08-05T05:46:18.909Z,101445.69
2022-08-05T05:51:25.519Z,101433.22
2022-08-05T05:56:32.271Z,101432.06
2022-08-05T06:01:38.957Z,101447.59
2022-08-05T06:06:47.570Z,101438.31
2022-08-05T06:12:01.054Z,101432.72
2022-08-05T06:17:22.271Z,101424.34
2022-08-05T06:22:30.455Z,101420.47
2022-08-05T06:28:12.790Z,101438.03
2022-08-05T06:32:57.492Z,101438.63
2022-08-05T06:38:03.054Z,101430.16
2022-08-05T06:43:57.478Z,101425.88
2022-08-05T06:48:55.494Z,101427.81
2022-08-05T06:54:02.627Z,101435.06
2022-08-05T06:59:09.474Z,101465.00
2022-08-05T07:04:13.997Z,101469.00
2022-08-05T07:09:15.789Z,101465.88
2022-08-05T07:14:37.178Z,101464.28
2022-08-05T07:25:23.450Z,101467.72
2022-08-05T07:30:30.244Z,101473.34
2022-08-05T07:36:02.939Z,101474.88
2022-08-05T07:41:04.418Z,101479.34
2022-08-05T07:46:24.304Z,101474.16
2022-08-05T07:51:36.821Z,101455.44
2022-08-05T07:57:02.422Z,101459.06
2022-08-05T08:02:04.061Z,101482.53
2022-08-05T08:07:07.338Z,101472.28
2022-08-05T08:12:19.056Z,101472.34
2022-08-05T08:17:32.253Z,101473.63
2022-08-05T08:22:34.122Z,101467.50
2022-08-05T08:27:44.858Z,101463.44
2022-08-05T08:32:49.284Z,101462.53
2022-08-05T08:37:53.608Z,101467.09
2022-08-05T08:45:16.839Z,101458.47
2022-08-05T08:48:41.599Z,101458.13
2022-08-05T08:53:45.153Z,101464.06
2022-08-05T08:58:48.521Z,101461.63
2022-08-05T09:03:55.402Z,101472.63
2022-08-05T09:09:01.114Z,101466.38
2022-08-05T09:14:54.111Z,101456.72
2022-08-05T09:19:28.002Z,101469.53
2022-08-05T09:24:38.036Z,101471.72
2022-08-05T09:29:48.051Z,101474.91
2022-08-05T09:34:59.900Z,101481.34
2022-08-05T09:40:04.672Z,101483.47
2022-08-05T09:46:04.982Z,101491.28
2022-08-05T09:50:44.820Z,101475.38
2022-08-05T09:55:56.562Z,101480.47
2022-08-05T10:01:14.678Z,101482.81
2022-08-05T10:06:19.518Z,101492.72
2022-08-05T10:11:22.906Z,101493.50
2022-08-05T10:16:38.050Z,101494.50
2022-08-05T10:21:53.985Z,101506.81
2022-08-05T10:27:00.647Z,101501.19
2022-08-05T10:32:53.400Z,101507.50
2022-08-05T10:37:26.731Z,101506.38
2022-08-05T10:42:47.734Z,101512.69
2022-08-05T10:48:27.630Z,101507.31
2022-08-05T10:53:49.986Z,101513.97
2022-08-05T10:58:54.682Z,101503.81
2022-08-05T11:04:03.247Z,101506.03
2022-08-05T11:09:16.399Z,101511.94
2022-08-05T11:14:57.835Z,101508.88
2022-08-05T11:20:17.072Z,101515.81
2022-08-05T11:26:05.242Z,101517.13
2022-08-05T11:30:58.558Z,101534.75
2022-08-05T11:36:08.686Z,101528.66
2022-08-05T11:41:54.420Z,101532.41
2022-08-05T11:46:58.682Z,101530.44
2022-08-05T11:52:11.129Z,101516.56
2022-08-05T11:57:25.883Z,101549.44
2022-08-05T12:02:32.984Z,101573.47
2022-08-05T12:08:08.620Z,101570.34
2022-08-05T12:13:15.839Z,101559.00
2022-08-05T12:18:33.061Z,101585.44
2022-08-05T12:23:35.050Z,101592.03
2022-08-05T12:28:44.820Z,101574.31
2022-08-05T12:33:49.091Z,101585.13
2022-08-05T12:38:51.332Z,101567.44
2022-08-05T12:43:57.583Z,101590.09
2022-08-05T12:49:12.934Z,101588.53
2022-08-05T12:54:31.843Z,101581.44
2022-08-05T13:00:09.075Z,101580.56
2022-08-05T13:05:07.069Z,101576.25
2022-08-05T13:10:19.940Z,101570.75
2022-08-05T13:15:36.111Z,101571.72
2022-08-05T13:20:44.118Z,101571.97
2022-08-05T13:25:58.943Z,101570.53
2022-08-05T13:31:03.322Z,101568.47
2022-08-05T13:36:14.347Z,101570.00
2022-08-05T13:41:16.599Z,101575.00
2022-08-05T13:46:35.796Z,101572.69
2022-08-05T13:51:46.578Z,101563.84
2022-08-05T13:56:51.462Z,101559.47
2022-08-05T14:02:00.024Z,101562.31
2022-08-05T14:07:12.041Z,101564.56
2022-08-05T14:12:32.264Z,101564.78
2022-08-05T14:17:34.951Z,101570.22
2022-08-05T14:22:37.120Z,101565.34
2022-08-05T14:27:38.705Z,101568.41
2022-08-05T14:32:49.133Z,101545.84
2022-08-05T14:37:55.441Z,101570.09
2022-08-05T14:42:57.561Z,101576.53
2022-08-05T14:48:05.427Z,101560.91
2022-08-05T14:53:08.072Z,101571.31
2022-08-05T14:58:13.919Z,101578.59
2022-08-05T15:03:15.847Z,101587.63
2022-08-05T15:08:58.341Z,101597.56
2022-08-05T15:13:46.069Z,101589.53
2022-08-05T15:18:49.388Z,101609.84
2022-08-05T15:23:50.983Z,101601.78
2022-08-05T15:28:53.088Z,101610.84
2022-08-05T15:34:05.722Z,101609.59
2022-08-05T15:40:58.491Z,101611.72
2022-08-05T15:44:41.499Z,101626.91
2022-08-05T15:49:55.173Z,101629.75
2022-08-05T15:55:00.821Z,101634.72
2022-08-05T16:00:08.723Z,101635.38
2022-08-05T16:05:11.394Z,101658.63
2022-08-05T16:10:13.173Z,101660.31
2022-08-05T16:15:18.566Z,101672.13
2022-08-05T16:20:20.636Z,101678.97
2022-08-05T16:25:22.278Z,101698.53
2022-08-05T16:30:36.101Z,101709.25
2022-08-05T16:35:42.276Z,101715.13
2022-08-05T16:40:52.164Z,101699.91
2022-08-05T16:46:07.464Z,101729.00
2022-08-05T16:51:20.700Z,101731.63
2022-08-05T16:56:24.310Z,101738.28
2022-08-05T17:01:26.089Z,101740.16
2022-08-05T17:06:28.826Z,101749.09
2022-08-05T17:11:31.209Z,101753.00
2022-08-05T17:16:48.545Z,101755.63
2022-08-05T17:21:55.541Z,101762.94
2022-08-05T17:26:58.524Z,101766.63
2022-08-05T17:32:00.177Z,101768.66
2022-08-05T17:37:02.726Z,101800.91
2022-08-05T17:42:28.553Z,101798.06
2022-08-05T17:47:28.627Z,101802.94
2022-08-05T17:52:33.555Z,101796.34
2022-08-05T17:57:35.068Z,101799.16
2022-08-05T18:02:39.456Z,101810.94
2022-08-05T18:07:42.397Z,101814.53
2022-08-05T18:12:44.178Z,101836.84
2022-08-05T18:17:58.812Z,101842.81
2022-08-05T18:23:09.210Z,101836.22
2022-08-05T18:28:16.247Z,101868.53
2022-08-05T18:33:22.550Z,101884.72
2022-08-05T18:38:25.985Z,101886.84
2022-08-05T18:43:31.632Z,101887.88
2022-08-05T18:48:41.801Z,101889.66
2022-08-05T18:53:50.197Z,101892.66
2022-08-05T18:58:54.705Z,101894.78
2022-08-05T19:03:56.739Z,101900.47
2022-08-05T19:08:58.351Z,101907.94
2022-08-05T19:14:19.980Z,101908.59
2022-08-05T19:19:24.865Z,101920.97
2022-08-05T19:24:34.527Z,101916.31
2022-08-05T19:29:37.165Z,101932.09
2022-08-05T19:34:40.628Z,101942.03
2022-08-05T19:39:45.501Z,101935.59
2022-08-05T19:44:53.836Z,101947.88
2022-08-05T19:50:00.791Z,101950.66
2022-08-05T19:55:07.553Z,101956.31
2022-08-05T20:00:24.327Z,101961.63
2022-08-05T20:05:26.530Z,101959.09
2022-08-05T20:10:45.095Z,101956.59
2022-08-05T20:15:57.641Z,101968.50
2022-08-05T20:20:59.972Z,101966.81
2022-08-05T20:26:02.726Z,101974.31
2022-08-05T20:31:04.669Z,101967.34
2022-08-05T20:36:06.658Z,101975.47
2022-08-05T20:41:11.721Z,101987.16
2022-08-05T20:46:25.617Z,101995.34
2022-08-05T20:51:27.944Z,101998.03
2022-08-05T20:56:34.092Z,102001.56
2022-08-05T21:01:37.563Z,102007.00
2022-08-05T21:06:45.337Z,102009.69
2022-08-05T21:12:10.241Z,102014.22
2022-08-05T21:17:09.545Z,102020.44
2022-08-05T21:22:11.094Z,102029.16
2022-08-05T21:27:13.436Z,102029.38
2022-08-05T21:32:19.772Z,102023.59
2022-08-05T21:37:21.801Z,102047.06
2022-08-05T21:42:41.473Z,102048.00
2022-08-05T21:47:56.924Z,102055.94
2022-08-05T21:53:08.482Z,102058.47
2022-08-05T21:58:19.297Z,102057.69
2022-08-05T22:03:53.243Z,102054.34
2022-08-05T22:08:42.990Z,102060.66
2022-08-05T22:14:05.829Z,102068.50
2022-08-05T22:19:15.941Z,102073.69
2022-08-05T22:24:52.230Z,102078.06
2022-08-05T22:29:54.402Z,102082.63
2022-08-05T22:34:55.925Z,102098.47
2022-08-05T22:39:57.532Z,102101.28
2022-08-05T22:44:59.761Z,102110.16
2022-08-05T22:50:20.155Z,102106.72
2022-08-05T22:55:24.081Z,102111.97
2022-08-05T23:00:28.254Z,102119.06
2022-08-05T23:05:36.156Z,102125.19
2022-08-05T23:10:38.313Z,102124.38
2022-08-05T23:15:40.619Z,102134.94
2022-08-05T23:20:43.046Z,102135.81
2022-08-05T23:25:51.863Z,102135.03
2022-08-05T23:30:56.016Z,102137.63
2022-08-05T23:36:16.295Z,102149.03
2022-08-05T23:41:17.951Z,102147.44
2022-08-05T23:46:21.995Z,102147.50
2022-08-05T23:51:23.827Z,102151.97
2022-08-05T23:56:27.277Z,102145.97
